Santa Rita, Montana
Current Conditions -  °F | °C
As of 10:56 PM on Wednesday 22 Oct 2014 (Local Time) from KCTB Reporting Station
Clear Clear  
Wind Chill: 41°   Ceiling: Unl
Heat Index: 46°   Visibility: 10mi
Dew Point: 35°   Wind: 9mph
Humidity: 66%   Direction: 180°S
Pressure: 29.78"   Gusts: NA
Location:  48.7°N, 112.32°W
Report Text: KCTB 230456Z AUTO 18008KT 10SM CLR 08/02 A2978 RMK AO2 SLP082 T00780017
Loading
Personal Weather Stations






























Interactive Weather Map
Tropical Storm Tracking
New forecast layout! Learn more

10-Day Weather Forecast

Advertisements
Track Severe Weather on mobile